Weather at Napa County Airport

Public forecast

Using degrees Fahrenheit for public forecast. Weather courtesy of forecast.io.

Current aviation weather report (METAR) for Napa County Airport

Retrieved 2021/01/22 10:14 UTC (30 minutes ago):

KAPC 221014Z AUTO 00000KT 10SM SCT024 BKN045 07/05 A2992 RMK AO2 T00720050

Aviation forecast (TAF) for Napa County Airport

Retrieved 2021/01/22 06:36 UTC (4 hours ago):

TAF KAPC 220533Z 2206/2306 VRB03KT P6SM SCT120 BKN200 TEMPO 2208/2211 SCT008 BKN012 OVC080 FM221300 24004KT 5SM -SHRA BR OVC012 FM221800 21007KT 5SM -SHRA VCTS BKN020CB OVC080 FM222100 22006KT P6SM VCSH BKN020 OVC080 FM230100 28005KT P6SM SCT020 BKN050